Latest Weather Observations for Minlaton Airport

IDS60801

Issued at 5:05 am CST Wednesday 17 September 2014 (issued every 30 minutes, with the page automatically refreshed every 10 minutes)

About weather observations | Map of weather stations | Latest weather observations for SA | Other Formats
Station Details ID: 022031 Name: MINLATON AERO Lat: -34.75 Lon: 137.53 Height: 32.0 m
Data from the previous 72 hours. | See also: Recent months at Minlaton Airport
Date/Time
CST
Temp
°C
App
Temp
°C
Dew
Point
Rel
Hum
%
Delta-T
°C
Wind Press
QNH
hPa
Press
MSL
hPa
Rain
since 9 am
mm
Dir
 
Spd
km/h
Gust
km/h
Spd
kts
Gust
kts
17/05:00am 6.8 3.4 5.7 93 0.5 SSW 13 15 7 8 1019.7 1019.7 0.0
17/04:30am 7.0 4.7 5.8 92 0.5 SSW 7 9 4 5 1019.5 1019.5 0.0
17/04:00am 8.5 5.9 7.6 94 0.4 SW 11 15 6 8 1019.4 1019.4 0.0
17/03:30am 8.8 5.8 7.7 93 0.5 SW 13 17 7 9 1019.3 1019.3 0.0
17/03:00am 9.2 5.5 8.1 93 0.5 SW 17 20 9 11 1019.2 1019.2 0.0
17/02:30am 7.4 4.1 6.2 92 0.5 SW 13 17 7 9 1019.4 1019.4 0.0
17/02:00am 6.3 3.4 4.6 89 0.7 SSW 9 15 5 8 1019.4 1019.4 0.0
17/01:30am 7.6 4.6 6.1 90 0.7 SW 11 15 6 8 1019.5 1019.5 0.0
17/01:00am 7.4 4.0 5.7 89 0.8 SSW 13 17 7 9 1019.7 1019.7 0.0
17/12:30am 7.6 4.5 5.4 86 1.0 SSW 11 15 6 8 1020.0 1020.0 0.0
17/12:00am 8.1 4.2 5.4 83 1.2 SW 15 17 8 9 1020.0 1020.0 0.0
 
Date/Time
CST
Temp
°C
App
Temp
°C
Dew
Point
Rel
Hum
%
Delta-T
°C
Wind Press
QNH
hPa
Press
MSL
hPa
Rain
since 9 am
mm
Dir
 
Spd
km/h
Gust
km/h
Spd
kts
Gust
kts
16/11:30pm 8.5 5.4 5.4 81 1.4 SW 11 15 6 8 1020.0 1020.0 0.0
16/11:00pm 10.1 6.7 5.7 74 2.0 WSW 13 17 7 9 1020.0 1020.0 0.0
16/10:30pm 11.3 7.6 6.4 72 2.3 WSW 15 17 8 9 1020.3 1020.3 0.0
16/10:00pm 11.6 6.9 6.1 69 2.6 SW 20 30 11 16 1020.3 1020.3 0.0
16/09:30pm 8.8 4.2 5.7 81 1.4 SW 19 24 10 13 1020.1 1020.1 0.0
16/09:00pm 7.4 3.1 5.4 87 0.9 SW 17 20 9 11 1019.9 1019.9 0.0
16/08:30pm 7.6 3.7 5.4 86 1.0 SW 15 17 8 9 1019.5 1019.5 0.0
16/08:00pm 8.6 5.2 6.1 84 1.1 SW 13 15 7 8 1019.3 1019.3 0.0
16/07:30pm 10.5 6.5 6.8 78 1.7 WSW 17 24 9 13 1018.9 1018.9 0.0
16/07:00pm 12.0 7.5 6.9 71 2.4 WSW 20 30 11 16 1018.6 1018.6 0.0
16/06:30pm 12.5 8.1 7.6 72 2.4 WSW 20 26 11 14 1018.4 1018.4 0.0
16/06:00pm 12.8 8.5 7.7 71 2.5 SW 20 28 11 15 1018.1 1018.1 0.0
16/05:30pm 14.0 10.1 8.6 70 2.7 WSW 19 26 10 14 1017.7 1017.7 0.0
16/05:00pm 15.2 11.1 8.7 65 3.3 WSW 20 30 11 16 1017.6 1017.6 0.0
16/04:30pm 14.2 10.1 8.6 69 2.8 WSW 20 30 11 16 1017.6 1017.6 0.0
16/04:00pm 14.6 9.7 9.8 73 2.5 WSW 26 35 14 19 1017.4 1017.4 0.0
16/03:30pm 15.2 9.4 9.6 69 2.9 W 30 35 16 19 1017.3 1017.3 0.0
16/03:00pm 15.6 11.4 9.9 69 3.0 W 22 30 12 16 1017.1 1017.1 0.0
16/02:30pm 16.5 12.3 9.7 64 3.6 W 22 30 12 16 1017.1 1017.1 0.0
16/02:00pm 16.2 11.2 9.6 65 3.4 W 26 33 14 18 1017.3 1017.3 0.0
16/01:30pm 16.0 10.6 8.2 60 3.9 W 26 35 14 19 1017.4 1017.4 0.0
16/01:00pm 16.2 11.7 8.4 60 4.0 W 22 32 12 17 1017.8 1017.8 0.0
16/12:30pm 15.9 9.7 10.2 69 3.0 W 33 44 18 24 1018.0 1018.0 0.0
16/12:00pm 16.1 10.6 9.3 64 3.5 W 28 35 15 19 1018.3 1018.3 0.0
16/11:30am 16.1 11.2 9.8 66 3.3 W 26 33 14 18 1018.4 1018.4 0.0
16/11:00am 16.5 11.9 9.7 64 3.5 W 24 33 13 18 1018.7 1018.7 0.0
16/10:30am 16.7 12.7 8.9 60 4.0 W 20 30 11 16 1018.7 1018.7 0.0
16/10:00am 16.3 12.4 8.5 60 4.0 W 19 24 10 13 1018.6 1018.6 0.0
16/09:30am 15.5 10.8 9.4 67 3.1 WSW 24 32 13 17 1018.8 1018.8 0.0
16/09:00am 14.5 10.7 9.9 74 2.4 WSW 20 28 11 15 1018.9 1018.9 0.6
16/08:30am 13.8 10.2 10.4 80 1.8 WSW 20 26 11 14 1018.9 1018.9 0.6
16/08:00am 12.5 10.4 11.1 91 0.7 W 13 19 7 10 1018.9 1018.9 0.6
16/07:30am 12.4 11.2 11.5 94 0.5 WSW 9 13 5 7 1018.7 1018.7 0.6
16/07:00am 10.6 8.9 9.7 94 0.5 SW 9 11 5 6 1018.4 1018.4 0.6
16/06:30am 10.6 8.9 9.8 95 0.4 SW 9 11 5 6 1018.1 1018.1 0.6
16/06:00am 9.8 8.3 9.0 95 0.4 WNW 7 13 4 7 1018.1 1018.1 0.6
16/05:30am 10.3 8.5 9.5 95 0.4 SW 9 11 5 6 1017.9 1017.9 0.6
16/05:00am 10.0 7.8 9.4 96 0.3 SSW 11 13 6 7 1017.8 1017.8 0.6
16/04:30am 9.1 6.7 8.5 96 0.3 SW 11 11 6 6 1017.8 1017.8 0.6
16/04:00am 7.6 5.2 7.0 96 0.3 WSW 9 11 5 6 1017.4 1017.4 0.6
16/03:30am 6.1 3.7 5.2 94 0.4 WSW 7 9 4 5 1017.3 1017.3 0.6
16/03:00am 8.1 5.4 7.2 94 0.4 SW 11 13 6 7 1017.3 1017.3 0.6
16/02:30am 8.8 6.6 8.0 95 0.4 SW 9 11 5 6 1017.3 1017.3 0.6
16/02:00am 8.5 6.2 7.6 94 0.4 SSW 9 11 5 6 1017.5 1017.5 0.6
16/01:30am 9.7 7.8 8.9 95 0.4 SSW 9 11 5 6 1017.8 1017.8 0.6
16/01:00am 9.1 7.0 8.3 95 0.4 S 9 11 5 6 1018.0 1018.0 0.6
16/12:30am 9.5 7.1 8.7 95 0.4 SSW 11 13 6 7 1018.2 1018.2 0.6
16/12:00am 9.2 6.7 8.4 95 0.4 SW 11 13 6 7 1018.2 1018.2 0.6
 
Date/Time
CST
Temp
°C
App
Temp
°C
Dew
Point
Rel
Hum
%
Delta-T
°C
Wind Press
QNH
hPa
Press
MSL
hPa
Rain
since 9 am
mm
Dir
 
Spd
km/h
Gust
km/h
Spd
kts
Gust
kts
15/11:30pm 6.8 4.2 5.9 94 0.4 SW 9 9 5 5 1018.3 1018.3 0.6
15/11:00pm 7.8 5.0 6.9 94 0.4 SSW 11 11 6 6 1018.3 1018.3 0.6
15/10:30pm 7.2 4.3 6.3 94 0.4 SSW 11 13 6 7 1018.3 1018.3 0.6
15/10:00pm 7.1 4.5 5.9 92 0.5 S 9 11 5 6 1018.3 1018.3 0.6
15/09:30pm 8.5 5.4 7.4 93 0.5 SSW 13 15 7 8 1018.4 1018.4 0.6
15/09:00pm 9.4 6.5 8.3 93 0.5 SSW 13 15 7 8 1018.2 1018.2 0.6
15/08:30pm 9.5 6.3 8.3 92 0.6 SSW 15 17 8 9 1018.1 1018.1 0.6
15/08:00pm 9.4 6.9 8.0 91 0.7 SW 11 13 6 7 1017.9 1017.9 0.6
15/07:30pm 9.7 6.8 8.1 90 0.8 SSW 13 15 7 8 1017.8 1017.8 0.6
15/07:00pm 10.0 7.0 7.9 87 1.0 SW 13 15 7 8 1017.4 1017.4 0.6
15/06:30pm 11.3 8.4 8.2 81 1.5 SSW 13 15 7 8 1016.8 1016.8 0.6
15/06:00pm 13.6 9.8 9.1 74 2.3 SSW 19 24 10 13 1016.5 1016.5 0.6
15/05:30pm 14.4 8.8 8.6 68 2.9 SW 28 35 15 19 1016.1 1016.1 0.6
15/05:00pm 16.1 10.5 8.8 62 3.7 SW 28 41 15 22 1015.6 1015.6 0.6
15/04:30pm 16.4 10.2 9.3 63 3.7 SSW 32 43 17 23 1015.5 1015.5 0.6
15/04:00pm 16.3 10.5 9.5 64 3.5 SSW 30 41 16 22 1015.1 1015.1 0.6
15/03:30pm 15.8 9.7 9.9 68 3.1 SSW 32 43 17 23 1014.9 1014.9 0.6
15/03:00pm 17.5 11.2 11.1 66 3.5 SW 35 44 19 24 1014.6 1014.6 0.6
15/02:30pm 16.7 12.2 12.7 77 2.2 SW 28 41 15 22 1014.5 1014.5 0.6
15/02:00pm 16.8 12.1 12.1 74 2.6 WSW 28 39 15 21 1014.4 1014.4 0.0
15/01:30pm 17.2 11.6 10.3 64 3.7 SW 30 39 16 21 1014.3 1014.3 0.0
15/01:00pm 17.5 10.9 9.9 61 4.0 SW 35 46 19 25 1014.3 1014.3 0.0
15/12:45pm 18.4 12.5 10.5 60 4.2 SW 32 50 17 27 1014.1 1014.1 0.0
15/12:30pm 17.7 10.8 10.3 62 3.9 SSW 37 52 20 28 1014.0 1014.0 0.0
15/12:01pm 18.4 11.8 10.0 58 4.5 SSW 35 56 19 30 1013.8 1013.8 0.0
15/12:00pm 18.6 12.4 9.9 57 4.6 SSW 33 50 18 27 1013.8 1013.8 0.0
15/11:31am 18.5 11.4 10.8 61 4.2 SSW 39 57 21 31 1013.7 1013.7 0.0
15/11:30am 18.5 11.7 10.8 61 4.2 SSW 37 54 20 29 1013.7 1013.7 0.0
15/11:00am 19.0 11.9 10.8 59 4.4 SSW 39 57 21 31 1013.3 1013.3 0.0
15/10:30am 17.2 9.7 10.8 66 3.4 SW 41 59 22 32 1013.0 1013.0 0.0
15/10:01am 17.0 9.8 10.6 66 3.4 SW 39 57 21 31 1013.0 1013.0 0.0
15/10:00am 17.1 9.6 10.9 67 3.3 SW 41 57 22 31 1013.0 1013.0 0.0
15/09:30am 16.0 9.0 11.2 73 2.6 SW 39 56 21 30 1012.6 1012.6 0.0
15/09:22am 16.1 9.8 11.1 72 2.7 SW 35 56 19 30 1012.4 1012.4 0.0
15/09:00am 15.2 8.9 11.2 77 2.1 SW 35 48 19 26 1012.1 1012.1 0.0
15/08:30am 14.9 8.3 11.3 79 1.9 SW 37 52 20 28 1011.8 1011.8 0.0
15/08:00am 14.6 8.5 11.6 82 1.6 WSW 35 46 19 25 1011.4 1011.4 0.0
15/07:30am 14.3 8.5 11.6 84 1.4 WSW 33 41 18 22 1010.9 1010.9 0.0
15/07:00am 14.3 9.2 12.0 86 1.2 WSW 30 41 16 22 1010.6 1010.6 0.0
15/06:30am 14.2 9.9 12.2 88 1.1 WSW 26 35 14 19 1010.1 1010.1 0.0
15/06:00am 14.1 9.9 12.5 90 0.9 W 26 39 14 21 1009.9 1009.9 0.0
15/05:30am 14.1 9.8 12.0 87 1.1 WSW 26 35 14 19 1009.7 1009.7 0.0
15/05:00am 14.4 10.0 12.8 90 0.9 W 28 39 15 21 1009.6 1009.6 0.0
15/04:30am 14.3 10.0 12.2 87 1.1 NW 26 35 14 19 1009.6 1009.6 0.0
15/04:00am 14.1 10.2 12.0 87 1.1 NW 24 32 13 17 1009.5 1009.5 0.0
15/03:30am 14.2 10.2 11.9 86 1.2 NW 24 35 13 19 1009.6 1009.6 0.0
15/03:00am 14.1 10.8 11.6 85 1.3 NNW 20 33 11 18 1009.9 1009.9 0.0
15/02:30am 14.0 10.7 11.5 85 1.3 NNW 20 26 11 14 1010.1 1010.1 0.0
15/02:00am 14.0 10.6 11.2 83 1.5 NNW 20 28 11 15 1010.5 1010.5 0.0
15/01:30am 13.9 10.6 10.9 82 1.6 NNW 19 26 10 14 1010.8 1010.8 0.0
15/01:00am 13.3 10.8 11.2 87 1.1 N 15 20 8 11 1010.9 1010.9 0.0
15/12:30am 12.3 10.0 10.5 89 0.9 N 13 17 7 9 1010.9 1010.9 0.0
15/12:00am 13.0 10.4 10.7 86 1.2 N 15 19 8 10 1011.3 1011.3 0.0
 
Date/Time
CST
Temp
°C
App
Temp
°C
Dew
Point
Rel
Hum
%
Delta-T
°C
Wind Press
QNH
hPa
Press
MSL
hPa
Rain
since 9 am
mm
Dir
 
Spd
km/h
Gust
km/h
Spd
kts
Gust
kts
14/11:30pm 13.3 10.7 10.8 85 1.3 NNW 15 20 8 11 1011.6 1011.6 0.0
14/11:00pm 13.3 8.3 9.5 78 1.9 WNW 26 37 14 20 1012.2 1012.2 0.0
14/10:30pm 14.1 9.6 11.4 84 1.4 WNW 26 33 14 18 1012.4 1012.4 0.0
14/10:00pm 13.8 10.4 12.4 91 0.8 WNW 22 32 12 17 1012.7 1012.7 0.0
14/09:30pm 14.0 10.6 12.6 91 0.8 WNW 22 30 12 16 1012.5 1012.5 0.0
14/09:00pm 14.6 10.8 12.3 86 1.3 WNW 24 33 13 18 1012.4 1012.4 0.0
14/08:30pm 14.8 11.5 11.6 81 1.7 W 20 26 11 14 1012.2 1012.2 0.0
14/08:00pm 15.8 13.0 10.1 69 3.0 NW 15 20 8 11 1012.0 1012.0 0.0
14/07:30pm 17.7 14.8 9.6 59 4.3 WNW 15 20 8 11 1011.8 1011.8 0.0
14/07:00pm 20.6 15.5 6.2 39 7.2 NNW 22 33 12 18 1011.5 1011.5 0.0
14/06:47pm 21.1 14.4 5.5 36 7.7 NW 30 63 16 34 1011.2 1011.2 0.0
14/06:30pm 20.9 15.5 6.4 39 7.3 NE 24 32 13 17 1010.0 1010.0 0.0
14/06:00pm 21.8 16.1 6.5 37 7.8 NE 26 32 14 17 1010.0 1010.0 0.0
14/05:30pm 22.9 17.3 7.0 36 8.2 NE 26 32 14 17 1010.2 1010.2 0.0
14/05:00pm 24.3 18.5 6.1 31 9.3 NNE 26 33 14 18 1010.4 1010.4 0.0
14/04:30pm 24.9 20.2 9.2 37 8.5 NNE 24 41 13 22 1010.9 1010.9 0.0
14/04:00pm 24.4 19.1 8.4 36 8.6 ENE 26 32 14 17 1011.3 1011.3 0.0
14/03:30pm 24.2 18.6 8.6 37 8.4 E 28 35 15 19 1011.8 1011.8 0.0
14/03:00pm 25.5 20.4 9.3 36 8.9 E 26 35 14 19 1011.8 1011.8 0.0
14/02:30pm 25.4 20.5 10.1 38 8.5 ENE 26 37 14 20 1012.3 1012.3 0.0
14/02:00pm 24.7 20.1 9.8 39 8.2 ENE 24 33 13 18 1012.9 1012.9 0.0
14/01:30pm 24.8 20.5 10.7 41 7.9 ENE 24 33 13 18 1013.6 1013.6 0.0
14/01:00pm 25.0 20.8 9.7 38 8.4 NE 22 32 12 17 1014.2 1014.2 0.0
14/12:30pm 24.3 20.4 9.5 39 8.1 NE 20 32 11 17 1015.1 1015.1 0.0
14/12:00pm 23.1 19.4 9.5 42 7.4 NE 19 26 10 14 1015.8 1015.8 0.0
14/11:30am 22.8 19.8 10.6 46 6.7 ENE 17 24 9 13 1016.5 1016.5 0.0
14/11:00am 20.9 17.2 9.5 48 6.1 E 19 26 10 14 1017.2 1017.2 0.0
14/10:30am 18.7 14.4 9.2 54 5.0 E 22 28 12 15 1017.5 1017.5 0.0
14/10:00am 19.1 15.1 10.6 58 4.6 E 22 30 12 16 1017.9 1017.9 0.0
14/09:30am 17.2 12.2 9.6 61 4.0 E 26 33 14 18 1017.8 1017.8 0.0
14/09:00am 16.6 12.0 9.8 64 3.6 E 24 32 13 17 1018.4 1018.4 0.2
14/08:30am 14.6 10.8 11.2 80 1.8 E 22 28 12 15 1018.5 1018.5 0.2
14/08:00am 13.5 9.2 10.7 83 1.5 E 24 32 13 17 1018.1 1018.1 0.2
14/07:30am 12.2 7.5 10.8 91 0.7 E 26 30 14 16 1017.7 1017.7 0.2
14/07:00am 11.3 6.8 10.2 93 0.6 E 24 30 13 16 1017.5 1017.5 0.2
14/06:30am 10.3 5.6 9.4 94 0.4 ESE 24 32 13 17 1017.7 1017.7 0.2
14/06:00am 9.9 7.2 9.1 95 0.4 ESE 13 20 7 11 1018.0 1018.0 0.2
14/05:30am 10.0 6.6 9.2 95 0.4 ESE 17 20 9 11 1018.2 1018.2 0.2

Other Formats:

Comma delimited format used in spreadsheet applications
http://www.bom.gov.au/fwo/IDS60801/IDS60801.95659.axf

JavaScript Object Notation format (JSON) in row-major order
http://www.bom.gov.au/fwo/IDS60801/IDS60801.95659.json